createdAt,value
2018-09-22T00:02:20.316Z,67.00
2018-09-22T00:04:48.756Z,67.00
2018-09-22T00:07:17.186Z,67.10
2018-09-22T00:09:45.587Z,67.20
2018-09-22T00:12:14.040Z,67.40
2018-09-22T00:14:42.476Z,67.20
2018-09-22T00:17:11.034Z,67.50
2018-09-22T00:19:39.974Z,67.20
2018-09-22T00:22:08.408Z,67.70
2018-09-22T00:24:37.483Z,67.80
2018-09-22T00:27:05.936Z,67.60
2018-09-22T00:29:34.366Z,67.40
2018-09-22T00:32:02.836Z,67.80
2018-09-22T00:34:31.236Z,67.40
2018-09-22T00:36:59.670Z,67.30
2018-09-22T00:39:28.097Z,67.40
2018-09-22T00:41:56.547Z,67.10
2018-09-22T00:44:25.003Z,67.00
2018-09-22T00:46:53.475Z,66.60
2018-09-22T00:49:21.900Z,66.70
2018-09-22T00:51:50.338Z,66.80
2018-09-22T00:54:18.777Z,66.90
2018-09-22T00:56:47.197Z,67.10
2018-09-22T00:59:15.607Z,67.30
2018-09-22T01:01:44.027Z,67.10
2018-09-22T01:04:12.437Z,67.00
2018-09-22T01:06:40.853Z,67.60
2018-09-22T01:09:09.531Z,67.30
2018-09-22T01:11:38.478Z,67.40
2018-09-22T01:14:07.642Z,67.00
2018-09-22T01:16:37.005Z,67.40
2018-09-22T01:19:05.615Z,67.60
2018-09-22T01:21:34.044Z,67.70
2018-09-22T01:24:02.469Z,67.60
2018-09-22T01:26:30.881Z,67.30
2018-09-22T01:28:59.333Z,67.40
2018-09-22T01:31:27.851Z,67.40
2018-09-22T01:33:56.461Z,67.50
2018-09-22T01:36:24.892Z,67.50
2018-09-22T01:38:53.351Z,67.60
2018-09-22T01:41:21.831Z,67.60
2018-09-22T01:43:50.259Z,67.90
2018-09-22T01:46:18.689Z,67.60
2018-09-22T01:48:47.102Z,67.90
2018-09-22T01:51:15.521Z,68.30
2018-09-22T01:53:43.939Z,68.40
2018-09-22T01:56:12.447Z,68.60
2018-09-22T01:58:40.919Z,68.80
2018-09-22T02:01:09.834Z,68.80
2018-09-22T02:03:38.280Z,69.30
2018-09-22T02:06:06.983Z,69.20
2018-09-22T02:08:35.434Z,69.40
2018-09-22T02:11:03.852Z,69.30
2018-09-22T02:13:32.321Z,69.20
2018-09-22T02:16:00.755Z,69.40
2018-09-22T02:18:29.278Z,69.70
2018-09-22T02:20:57.862Z,70.20
2018-09-22T02:23:26.327Z,70.00
2018-09-22T02:25:54.845Z,70.30
2018-09-22T02:28:23.317Z,70.10
2018-09-22T02:30:51.770Z,69.90
2018-09-22T02:33:20.375Z,70.00
2018-09-22T02:35:48.796Z,70.20
2018-09-22T02:38:17.205Z,71.00
2018-09-22T02:40:45.604Z,70.60
2018-09-22T02:43:14.313Z,70.30
2018-09-22T02:45:42.757Z,70.70
2018-09-22T02:48:11.200Z,70.60
2018-09-22T02:50:39.612Z,70.80
2018-09-22T02:53:08.000Z,70.90
2018-09-22T02:55:36.438Z,70.70
2018-09-22T02:58:04.924Z,71.10
2018-09-22T03:00:33.456Z,71.10
2018-09-22T03:03:01.878Z,71.20
2018-09-22T03:05:30.373Z,71.60
2018-09-22T03:07:58.814Z,71.50
2018-09-22T03:10:27.244Z,71.70
2018-09-22T03:12:55.668Z,71.50
2018-09-22T03:15:30.644Z,71.60
2018-09-22T03:17:59.070Z,72.50
2018-09-22T03:20:27.528Z,72.10
2018-09-22T03:22:55.938Z,72.10
2018-09-22T03:25:24.482Z,72.30
2018-09-22T03:27:52.886Z,72.20
2018-09-22T03:30:21.304Z,72.40
2018-09-22T03:32:49.947Z,72.50
2018-09-22T03:35:18.356Z,72.70
2018-09-22T03:37:46.807Z,72.70
2018-09-22T03:40:15.375Z,73.00
2018-09-22T03:42:43.794Z,72.80
2018-09-22T03:45:12.210Z,73.50
2018-09-22T03:47:40.646Z,73.10
2018-09-22T03:50:09.117Z,73.30
2018-09-22T03:52:37.556Z,73.40
2018-09-22T03:55:06.014Z,73.40
2018-09-22T03:57:34.447Z,73.40
2018-09-22T04:00:03.023Z,73.50
2018-09-22T04:02:31.539Z,73.40
2018-09-22T04:05:00.091Z,73.80
2018-09-22T04:07:28.547Z,73.50
2018-09-22T04:09:57.014Z,73.80
2018-09-22T04:12:25.657Z,73.80
2018-09-22T04:14:54.071Z,73.80
2018-09-22T04:17:22.585Z,73.70
2018-09-22T04:19:51.003Z,73.70
2018-09-22T04:22:19.521Z,73.70
2018-09-22T04:24:47.952Z,73.70
2018-09-22T04:27:16.440Z,74.40
2018-09-22T04:29:44.852Z,74.20
2018-09-22T04:32:13.274Z,74.40
2018-09-22T04:34:41.678Z,74.60
2018-09-22T04:37:10.102Z,74.20
2018-09-22T04:39:38.505Z,74.20
2018-09-22T04:42:07.319Z,74.00
2018-09-22T04:44:35.747Z,73.90
2018-09-22T04:47:04.191Z,73.80
2018-09-22T04:49:32.619Z,73.80
2018-09-22T04:52:01.050Z,73.80
2018-09-22T04:54:29.601Z,74.10
2018-09-22T04:56:58.021Z,74.20
2018-09-22T04:59:26.439Z,74.60
2018-09-22T05:01:54.864Z,74.40
2018-09-22T05:04:23.281Z,74.40
2018-09-22T05:06:51.696Z,74.40
2018-09-22T05:09:20.168Z,74.50
2018-09-22T05:11:48.595Z,74.50
2018-09-22T05:14:17.062Z,74.60
2018-09-22T05:16:45.546Z,74.60
2018-09-22T05:19:14.014Z,74.70
2018-09-22T05:21:42.418Z,74.60
2018-09-22T05:24:10.907Z,74.90
2018-09-22T05:26:39.320Z,75.00
2018-09-22T05:29:07.767Z,75.30
2018-09-22T05:31:36.228Z,75.40
2018-09-22T05:34:04.656Z,75.10
2018-09-22T05:36:33.084Z,75.00
2018-09-22T05:39:01.584Z,75.10
2018-09-22T05:41:30.017Z,75.10
2018-09-22T05:43:58.438Z,75.00
2018-09-22T05:46:26.867Z,75.00
2018-09-22T05:48:55.294Z,74.90
2018-09-22T05:51:23.713Z,74.60
2018-09-22T05:53:52.151Z,74.40
2018-09-22T05:56:20.589Z,74.60
2018-09-22T05:58:49.097Z,74.60
2018-09-22T06:01:18.498Z,74.50
2018-09-22T06:03:46.936Z,74.60
2018-09-22T06:06:15.349Z,74.40
2018-09-22T06:08:43.732Z,74.00
2018-09-22T06:11:12.230Z,74.00
2018-09-22T06:13:40.640Z,74.10
2018-09-22T06:16:09.312Z,73.70
2018-09-22T06:18:38.134Z,73.60
2018-09-22T06:21:06.574Z,73.30
2018-09-22T06:23:35.027Z,73.00
2018-09-22T06:26:03.561Z,73.10
2018-09-22T06:28:32.130Z,73.10
2018-09-22T06:31:00.587Z,73.10
2018-09-22T06:33:28.988Z,73.50
2018-09-22T06:35:57.409Z,73.80
2018-09-22T06:38:25.830Z,73.60
2018-09-22T06:40:54.744Z,73.00
2018-09-22T06:43:23.156Z,73.00
2018-09-22T06:45:51.594Z,73.10
2018-09-22T06:48:20.027Z,72.50
2018-09-22T06:50:48.470Z,72.70
2018-09-22T06:53:16.905Z,72.30
2018-09-22T06:55:45.331Z,71.30
2018-09-22T06:58:14.004Z,70.70
2018-09-22T07:00:42.425Z,70.60
2018-09-22T07:03:10.842Z,70.20
2018-09-22T07:05:39.887Z,69.80
2018-09-22T07:08:08.549Z,69.20
2018-09-22T07:10:37.012Z,68.70
2018-09-22T07:13:05.475Z,68.10
2018-09-22T07:15:33.901Z,68.10
2018-09-22T07:18:02.484Z,68.20
2018-09-22T07:20:30.915Z,67.90
2018-09-22T07:23:15.463Z,67.50
2018-09-22T07:25:43.887Z,67.50
2018-09-22T07:28:12.325Z,67.00
2018-09-22T07:30:40.936Z,67.50
2018-09-22T07:33:09.365Z,67.30
2018-09-22T07:35:37.813Z,66.80
2018-09-22T07:38:06.435Z,66.70
2018-09-22T07:40:34.870Z,67.10
2018-09-22T07:43:03.323Z,67.40
2018-09-22T07:45:31.808Z,67.40
2018-09-22T07:48:00.272Z,67.10
2018-09-22T07:50:28.684Z,67.70
2018-09-22T07:52:57.128Z,68.00
2018-09-22T07:55:25.541Z,66.60
2018-09-22T07:57:53.964Z,66.40
2018-09-22T08:00:22.401Z,65.10
2018-09-22T08:02:50.812Z,64.20
2018-09-22T08:05:19.288Z,64.30
2018-09-22T08:07:47.822Z,62.70
2018-09-22T08:10:16.276Z,62.20
2018-09-22T08:12:44.658Z,62.60
2018-09-22T08:15:13.122Z,62.70
2018-09-22T08:17:41.736Z,62.50
2018-09-22T08:20:10.206Z,62.50
2018-09-22T08:22:38.638Z,63.10
2018-09-22T08:25:07.190Z,62.80
2018-09-22T08:27:35.582Z,62.40
2018-09-22T08:30:04.128Z,61.60
2018-09-22T08:32:32.564Z,59.40
2018-09-22T08:35:00.961Z,57.60
2018-09-22T08:37:29.438Z,54.30
2018-09-22T08:39:57.876Z,53.00
2018-09-22T08:42:26.314Z,51.20
2018-09-22T08:44:54.766Z,51.10
2018-09-22T08:47:23.220Z,52.90
2018-09-22T08:49:51.701Z,53.90
2018-09-22T08:52:20.110Z,54.80
2018-09-22T08:54:48.572Z,56.00
2018-09-22T08:57:17.115Z,56.00
2018-09-22T08:59:45.679Z,56.10
2018-09-22T09:02:14.139Z,55.20
2018-09-22T09:04:43.083Z,56.00
2018-09-22T09:07:11.701Z,56.30
2018-09-22T09:09:40.592Z,56.60
2018-09-22T09:12:09.027Z,55.90
2018-09-22T09:14:37.535Z,54.30
2018-09-22T09:17:06.021Z,54.50
2018-09-22T09:19:34.442Z,53.90
2018-09-22T09:22:02.879Z,52.10
2018-09-22T09:24:31.325Z,50.00
2018-09-22T09:26:59.751Z,46.70
2018-09-22T09:29:28.211Z,44.90
2018-09-22T09:31:56.679Z,46.20
2018-09-22T09:34:25.129Z,45.00
2018-09-22T09:36:53.639Z,46.20
2018-09-22T09:39:22.104Z,44.10
2018-09-22T09:41:50.545Z,42.80
2018-09-22T09:44:19.005Z,41.40
2018-09-22T09:46:47.453Z,40.30
2018-09-22T09:49:15.924Z,36.00
2018-09-22T09:51:44.370Z,35.80
2018-09-22T09:54:12.859Z,34.50
2018-09-22T09:56:41.318Z,33.70
2018-09-22T09:59:09.994Z,33.10
2018-09-22T10:01:38.487Z,32.70
2018-09-22T10:04:06.960Z,33.60
2018-09-22T10:06:35.431Z,35.50
2018-09-22T10:09:05.210Z,38.40
2018-09-22T10:11:33.656Z,41.20
2018-09-22T10:14:02.109Z,43.30
2018-09-22T10:16:30.563Z,44.50
2018-09-22T10:18:59.045Z,46.70
2018-09-22T10:21:27.508Z,48.30
2018-09-22T10:23:55.943Z,47.20
2018-09-22T10:26:24.459Z,44.60
2018-09-22T10:28:52.956Z,43.90
2018-09-22T10:31:21.361Z,43.10
2018-09-22T10:33:49.801Z,44.60
2018-09-22T10:36:18.615Z,45.70
2018-09-22T10:38:47.190Z,46.80
2018-09-22T10:41:15.607Z,49.00
2018-09-22T10:43:44.064Z,51.20
2018-09-22T10:46:12.488Z,56.80
2018-09-22T10:48:40.900Z,60.50
2018-09-22T10:51:09.360Z,63.70
2018-09-22T10:53:37.842Z,60.10
2018-09-22T10:56:06.308Z,61.30
2018-09-22T10:58:34.728Z,62.80
2018-09-22T11:01:09.697Z,63.50
2018-09-22T11:03:38.158Z,64.40
2018-09-22T11:06:07.238Z,64.60
2018-09-22T11:08:35.676Z,65.40
2018-09-22T11:11:04.164Z,63.50
2018-09-22T11:13:32.596Z,62.90
2018-09-22T11:16:01.034Z,63.50
2018-09-22T11:18:29.460Z,61.50
2018-09-22T11:20:57.899Z,59.50
2018-09-22T11:23:26.340Z,60.70
2018-09-22T11:25:54.791Z,58.90
2018-09-22T11:28:23.238Z,57.80
2018-09-22T11:30:51.763Z,59.00
2018-09-22T11:33:20.197Z,59.50
2018-09-22T11:35:48.664Z,59.70
2018-09-22T11:38:17.202Z,59.90
2018-09-22T11:40:45.578Z,60.30
2018-09-22T11:43:14.012Z,59.60
2018-09-22T11:45:42.478Z,58.60
2018-09-22T11:48:10.915Z,58.40
2018-09-22T11:50:39.360Z,57.50
2018-09-22T11:53:07.782Z,56.70
2018-09-22T11:55:36.208Z,56.70
2018-09-22T11:58:04.645Z,57.10
2018-09-22T12:00:33.123Z,57.30
2018-09-22T12:03:01.560Z,57.90
2018-09-22T12:05:30.019Z,57.60
2018-09-22T12:07:58.455Z,57.60
2018-09-22T12:10:26.942Z,58.40
2018-09-22T12:12:55.402Z,57.80
2018-09-22T12:15:23.837Z,57.80
2018-09-22T12:17:52.255Z,57.40
2018-09-22T12:20:20.711Z,58.50
2018-09-22T12:22:49.157Z,59.80
2018-09-22T12:25:17.597Z,59.30
2018-09-22T12:27:46.064Z,59.60
2018-09-22T12:30:14.596Z,59.40
2018-09-22T12:32:43.039Z,60.40
2018-09-22T12:35:11.457Z,62.00
2018-09-22T12:37:39.930Z,61.70
2018-09-22T12:40:08.387Z,62.90
2018-09-22T12:42:36.831Z,64.40
2018-09-22T12:45:05.334Z,64.50
2018-09-22T12:47:33.751Z,66.30
2018-09-22T12:50:02.222Z,65.60
2018-09-22T12:52:30.676Z,66.60
2018-09-22T12:54:59.111Z,66.60
2018-09-22T12:57:27.607Z,67.70
2018-09-22T12:59:56.052Z,68.70
2018-09-22T13:02:24.501Z,68.60
2018-09-22T13:04:52.986Z,69.80
2018-09-22T13:07:21.443Z,69.90
2018-09-22T13:09:49.872Z,70.90
2018-09-22T13:12:18.304Z,70.90
2018-09-22T13:14:46.739Z,71.10
2018-09-22T13:17:16.005Z,72.30
2018-09-22T13:19:44.456Z,71.40
2018-09-22T13:22:12.939Z,70.80
2018-09-22T13:24:41.353Z,71.60
2018-09-22T13:27:09.868Z,69.20
2018-09-22T13:29:38.321Z,70.80
2018-09-22T13:32:06.835Z,70.50
2018-09-22T13:34:35.284Z,71.20
2018-09-22T13:37:03.750Z,71.90
2018-09-22T13:39:32.223Z,71.80
2018-09-22T13:42:00.745Z,72.10
2018-09-22T13:44:29.192Z,73.70
2018-09-22T13:46:57.620Z,73.60
2018-09-22T13:49:26.056Z,75.00
2018-09-22T13:51:54.493Z,79.60
2018-09-22T13:54:22.936Z,81.00
2018-09-22T13:56:51.428Z,81.00
2018-09-22T13:59:19.868Z,80.00
2018-09-22T14:01:48.351Z,79.00
2018-09-22T14:04:16.852Z,78.40
2018-09-22T14:06:45.544Z,77.20
2018-09-22T14:09:14.011Z,77.40
2018-09-22T14:11:42.751Z,78.40
2018-09-22T14:14:11.326Z,76.40
2018-09-22T14:16:39.834Z,74.30
2018-09-22T14:19:08.331Z,74.60
2018-09-22T14:21:36.778Z,74.00
2018-09-22T14:24:05.308Z,73.50
2018-09-22T14:26:33.794Z,71.90
2018-09-22T14:29:02.268Z,72.60
2018-09-22T14:31:30.722Z,74.10
2018-09-22T14:33:59.352Z,74.30
2018-09-22T14:36:27.788Z,73.40
2018-09-22T14:38:56.220Z,75.00
2018-09-22T14:41:24.734Z,72.90
2018-09-22T14:43:53.224Z,72.90
2018-09-22T14:46:21.758Z,74.50
2018-09-22T14:48:50.217Z,75.70
2018-09-22T14:51:18.685Z,75.30
2018-09-22T14:53:47.118Z,76.80
2018-09-22T14:56:15.577Z,77.40
2018-09-22T14:58:44.000Z,76.70
2018-09-22T15:01:12.473Z,76.50
2018-09-22T15:03:40.897Z,77.00
2018-09-22T15:06:09.343Z,76.30
2018-09-22T15:08:37.780Z,76.30
2018-09-22T15:11:06.288Z,76.20
2018-09-22T15:13:34.723Z,77.30
2018-09-22T15:16:03.200Z,77.80
2018-09-22T15:18:31.675Z,78.10
2018-09-22T15:21:00.125Z,78.50
2018-09-22T15:23:28.602Z,75.50
2018-09-22T15:25:57.019Z,76.60
2018-09-22T15:28:25.453Z,76.70
2018-09-22T15:30:53.999Z,77.40
2018-09-22T15:33:22.431Z,76.70
2018-09-22T15:35:50.854Z,76.70
2018-09-22T15:38:19.295Z,78.00
2018-09-22T15:40:47.718Z,78.50
2018-09-22T15:43:16.151Z,78.20
2018-09-22T15:45:44.572Z,79.30
2018-09-22T15:48:13.103Z,79.80
2018-09-22T15:50:41.468Z,77.00
2018-09-22T15:53:09.943Z,79.10
2018-09-22T15:55:38.381Z,77.70
2018-09-22T15:58:06.849Z,78.10
2018-09-22T16:00:35.361Z,78.80
2018-09-22T16:03:03.825Z,78.80
2018-09-22T16:05:32.278Z,79.10
2018-09-22T16:08:00.735Z,79.40
2018-09-22T16:10:29.179Z,79.80
2018-09-22T16:12:57.589Z,78.10
2018-09-22T16:15:26.091Z,78.60
2018-09-22T16:17:54.480Z,80.70
2018-09-22T16:20:22.928Z,80.40
2018-09-22T16:22:51.337Z,81.20
2018-09-22T16:25:19.767Z,81.50
2018-09-22T16:27:48.173Z,80.50
2018-09-22T16:30:16.640Z,81.70
2018-09-22T16:32:45.110Z,79.20
2018-09-22T16:35:13.552Z,81.80
2018-09-22T16:37:41.977Z,80.70
2018-09-22T16:40:10.432Z,80.80
2018-09-22T16:42:38.885Z,81.00
2018-09-22T16:45:07.302Z,81.60
2018-09-22T16:47:35.721Z,82.00
2018-09-22T16:50:04.243Z,82.20
2018-09-22T16:52:32.635Z,82.70
2018-09-22T16:55:01.060Z,82.40
2018-09-22T16:57:29.495Z,82.70
2018-09-22T16:59:57.947Z,82.70
2018-09-22T17:02:26.397Z,82.00
2018-09-22T17:04:54.863Z,82.90
2018-09-22T17:07:23.320Z,82.50
2018-09-22T17:09:51.762Z,83.20
2018-09-22T17:12:20.189Z,82.90
2018-09-22T17:14:48.605Z,83.70
2018-09-22T17:17:17.012Z,82.80
2018-09-22T17:19:45.445Z,83.50
2018-09-22T17:22:13.920Z,84.20
2018-09-22T17:24:42.342Z,82.30
2018-09-22T17:27:10.780Z,83.30
2018-09-22T17:29:39.198Z,83.30
2018-09-22T17:32:07.644Z,83.80
2018-09-22T17:34:36.074Z,83.40
2018-09-22T17:37:04.539Z,83.20
2018-09-22T17:39:32.976Z,82.70
2018-09-22T17:42:01.441Z,83.10
2018-09-22T17:44:29.885Z,82.70
2018-09-22T17:46:58.383Z,83.80
2018-09-22T17:49:26.818Z,83.40
2018-09-22T17:51:55.268Z,84.20
2018-09-22T17:54:23.723Z,83.60
2018-09-22T17:56:52.165Z,84.50
2018-09-22T17:59:20.630Z,84.40
2018-09-22T18:01:49.083Z,84.20
2018-09-22T18:04:17.542Z,84.80
2018-09-22T18:06:45.984Z,84.60
2018-09-22T18:09:14.399Z,84.30
2018-09-22T18:11:42.836Z,85.00
2018-09-22T18:14:11.329Z,83.80
2018-09-22T18:16:39.788Z,84.30
2018-09-22T18:19:08.248Z,83.80
2018-09-22T18:21:36.715Z,84.10
2018-09-22T18:24:05.185Z,84.50
2018-09-22T18:26:33.623Z,84.50
2018-09-22T18:29:02.047Z,85.50
2018-09-22T18:31:30.569Z,85.50
2018-09-22T18:33:59.059Z,85.30
2018-09-22T18:36:27.475Z,85.50
2018-09-22T18:38:57.227Z,84.60
2018-09-22T18:41:25.765Z,84.00
2018-09-22T18:43:54.204Z,84.80
2018-09-22T18:46:22.681Z,84.90
2018-09-22T18:48:51.092Z,84.50
2018-09-22T18:51:19.511Z,84.50
2018-09-22T18:53:47.951Z,86.20
2018-09-22T18:56:16.401Z,86.60
2018-09-22T18:58:44.873Z,85.70
2018-09-22T19:01:13.347Z,85.70
2018-09-22T19:03:41.803Z,85.90
2018-09-22T19:06:10.222Z,86.20
2018-09-22T19:08:38.663Z,86.10
2018-09-22T19:11:07.134Z,86.70
2018-09-22T19:13:40.163Z,86.20
2018-09-22T19:16:17.836Z,86.00
2018-09-22T19:18:53.317Z,85.40
2018-09-22T19:22:00.212Z,85.30
2018-09-22T19:24:45.955Z,86.00
2018-09-22T19:27:21.684Z,85.50
2018-09-22T19:29:55.961Z,85.40
2018-09-22T19:32:30.148Z,85.30
2018-09-22T19:35:03.870Z,85.30
2018-09-22T19:37:39.032Z,85.30
2018-09-22T19:40:18.367Z,84.90
2018-09-22T19:42:51.599Z,84.90
2018-09-22T19:45:30.535Z,84.20
2018-09-22T19:48:03.722Z,84.90
2018-09-22T19:50:37.122Z,85.80
2018-09-22T19:53:05.574Z,85.20
2018-09-22T19:55:34.000Z,85.20
2018-09-22T19:58:02.439Z,84.80
2018-09-22T20:00:30.855Z,85.20
2018-09-22T20:02:59.276Z,85.60
2018-09-22T20:05:27.716Z,84.70
2018-09-22T20:07:56.198Z,85.20
2018-09-22T20:10:24.630Z,86.20
2018-09-22T20:12:53.036Z,86.20
2018-09-22T20:15:21.462Z,85.70
2018-09-22T20:17:49.910Z,85.80
2018-09-22T20:20:18.336Z,85.80
2018-09-22T20:22:46.764Z,86.40
2018-09-22T20:25:15.184Z,86.60
2018-09-22T20:27:43.624Z,86.40
2018-09-22T20:30:12.108Z,86.40
2018-09-22T20:32:40.541Z,85.90
2018-09-22T20:35:09.017Z,85.40
2018-09-22T20:37:37.638Z,86.90
2018-09-22T20:40:06.110Z,86.50
2018-09-22T20:42:34.532Z,86.30
2018-09-22T20:45:02.990Z,86.20
2018-09-22T20:47:31.411Z,86.70
2018-09-22T20:49:59.865Z,87.20
2018-09-22T20:52:28.326Z,87.00
2018-09-22T20:54:56.814Z,86.80
2018-09-22T20:57:25.260Z,86.60
2018-09-22T20:59:53.714Z,86.40
2018-09-22T21:02:22.226Z,86.50
2018-09-22T21:04:50.676Z,87.70
2018-09-22T21:07:19.132Z,86.90
2018-09-22T21:09:47.607Z,88.10
2018-09-22T21:12:16.024Z,88.40
2018-09-22T21:14:44.473Z,88.00
2018-09-22T21:17:12.903Z,88.00
2018-09-22T21:19:41.459Z,87.50
2018-09-22T21:22:09.991Z,87.90
2018-09-22T21:24:38.473Z,88.00
2018-09-22T21:27:06.879Z,87.60
2018-09-22T21:29:35.344Z,88.00
2018-09-22T21:32:03.796Z,87.30
2018-09-22T21:34:32.228Z,87.60
2018-09-22T21:37:00.652Z,87.80
2018-09-22T21:39:29.428Z,88.10
2018-09-22T21:41:57.879Z,87.90
2018-09-22T21:44:26.324Z,87.60
2018-09-22T21:46:54.768Z,88.30
2018-09-22T21:49:23.215Z,88.00
2018-09-22T21:51:51.704Z,88.50
2018-09-22T21:54:20.123Z,87.70
2018-09-22T21:56:48.582Z,90.00
2018-09-22T21:59:17.075Z,88.00
2018-09-22T22:01:45.525Z,87.80
2018-09-22T22:04:13.972Z,87.80
2018-09-22T22:06:42.429Z,87.80
2018-09-22T22:09:12.235Z,87.10
2018-09-22T22:11:41.025Z,87.60
2018-09-22T22:14:10.064Z,87.00
2018-09-22T22:16:39.059Z,86.90
2018-09-22T22:19:07.951Z,88.00
2018-09-22T22:21:36.387Z,87.70
2018-09-22T22:24:05.008Z,88.10
2018-09-22T22:26:33.436Z,87.70
2018-09-22T22:29:01.863Z,87.70
2018-09-22T22:31:30.293Z,88.20
2018-09-22T22:33:58.773Z,87.90
2018-09-22T22:36:27.219Z,87.80
2018-09-22T22:38:55.632Z,87.90
2018-09-22T22:41:24.084Z,88.20
2018-09-22T22:43:52.529Z,87.90
2018-09-22T22:46:20.969Z,87.70
2018-09-22T22:48:49.571Z,88.00
2018-09-22T22:51:18.112Z,88.00
2018-09-22T22:53:46.623Z,87.70
2018-09-22T22:56:15.247Z,88.30
2018-09-22T22:58:43.775Z,88.30
2018-09-22T23:01:12.229Z,87.80
2018-09-22T23:03:40.652Z,88.60
2018-09-22T23:06:09.201Z,88.30
2018-09-22T23:08:37.688Z,88.80
2018-09-22T23:11:06.293Z,88.40
2018-09-22T23:13:34.797Z,88.40
2018-09-22T23:16:03.702Z,88.30
2018-09-22T23:18:33.959Z,89.70
2018-09-22T23:21:02.592Z,89.00
2018-09-22T23:23:30.995Z,89.60
2018-09-22T23:25:59.515Z,89.40
2018-09-22T23:28:27.999Z,89.30
2018-09-22T23:30:56.521Z,89.10
2018-09-22T23:33:24.967Z,89.70
2018-09-22T23:35:53.438Z,89.00
2018-09-22T23:38:21.908Z,89.20
2018-09-22T23:40:50.502Z,89.30
2018-09-22T23:43:18.952Z,89.50
2018-09-22T23:45:47.404Z,89.20
2018-09-22T23:48:15.910Z,89.10
2018-09-22T23:50:44.444Z,89.50
2018-09-22T23:53:12.932Z,88.90
2018-09-22T23:55:41.394Z,89.10
2018-09-22T23:58:09.917Z,89.20
